Pagrindinis puslapis
METAR-TAF:

METAR-TAF

Oro uostai :

Puerto Suaresas, Bolivija

platuma: 18-59S, ilguma: 057-49W, Aukštis: 134 m

Dabartinis oras

Ataskaita buvo paskelbta 6 valandos ir 16 minutes, ne 16:00 UTC
Ramus vėjas
Temperatūra 26°C
Drėgmė 58%
Slėgis 1022 hPa
Matomumas 10 km arba daugiau

METAR: SLPS 301600Z 00000KT 9999 NSC 26/17 Q1022

Laikas: 18:16 (22:16 UTC)


TAF: trūkstamas

Orai ataskaitas ir orų prognozės (METAR, TAF).

turimą stotys yra geltonos ir raudonos taškus žemėlapyje.

Perkelti pele per norėdami pamatyti stoties vardą.

Tada spustelėkite, norėdami matyti oro stebėjimo ir prognozės.

Norėdami pakeisti žemėlapį: spustelėkite ant žalios mygtukų su juodo kryžiaus žemyn,; žalią mygtuką su brūkšneliu, jei norite nutolinti; arba žalių rodyklių gretimoms žemėlapius.


METAR-TAF: